sensor_id;sensor_type;location;lat;lon;timestamp;temperature;humidity
14031;DHT22;7090;49.436;8.490;2022-12-26T00:00:56;11.50;57.80
14031;DHT22;7090;49.436;8.490;2022-12-26T00:03:22;11.40;99.90
14031;DHT22;7090;49.436;8.490;2022-12-26T00:05:48;11.40;99.90
14031;DHT22;7090;49.436;8.490;2022-12-26T00:08:13;11.50;99.90
14031;DHT22;7090;49.436;8.490;2022-12-26T00:10:39;11.50;99.90
14031;DHT22;7090;49.436;8.490;2022-12-26T00:13:05;11.40;99.90
14031;DHT22;7090;49.436;8.490;2022-12-26T00:15:30;11.40;99.90
14031;DHT22;7090;49.436;8.490;2022-12-26T00:17:56;11.40;99.90
14031;DHT22;7090;49.436;8.490;2022-12-26T00:20:22;11.30;96.70
14031;DHT22;7090;49.436;8.490;2022-12-26T00:22:47;11.50;14.40
14031;DHT22;7090;49.436;8.490;2022-12-26T00:25:13;11.70;1.00
14031;DHT22;7090;49.436;8.490;2022-12-26T00:27:38;11.80;1.00
14031;DHT22;7090;49.436;8.490;2022-12-26T00:30:04;11.80;1.00
14031;DHT22;7090;49.436;8.490;2022-12-26T00:32:30;12.00;1.00
14031;DHT22;7090;49.436;8.490;2022-12-26T00:34:56;12.00;1.00
14031;DHT22;7090;49.436;8.490;2022-12-26T00:37:21;12.00;1.00
14031;DHT22;7090;49.436;8.490;2022-12-26T00:39:47;12.10;1.00
14031;DHT22;7090;49.436;8.490;2022-12-26T00:42:12;12.10;1.00
14031;DHT22;7090;49.436;8.490;2022-12-26T00:44:38;12.10;1.00
14031;DHT22;7090;49.436;8.490;2022-12-26T00:47:03;12.20;1.00
14031;DHT22;7090;49.436;8.490;2022-12-26T00:49:29;12.30;1.00
14031;DHT22;7090;49.436;8.490;2022-12-26T00:51:54;12.40;1.00
14031;DHT22;7090;49.436;8.490;2022-12-26T00:54:20;12.60;1.00
14031;DHT22;7090;49.436;8.490;2022-12-26T00:56:45;12.60;1.00
14031;DHT22;7090;49.436;8.490;2022-12-26T00:59:11;12.70;99.90
14031;DHT22;7090;49.436;8.490;2022-12-26T01:01:37;12.70;99.90
14031;DHT22;7090;49.436;8.490;2022-12-26T01:04:03;12.80;99.90
14031;DHT22;7090;49.436;8.490;2022-12-26T01:06:29;12.80;99.90
14031;DHT22;7090;49.436;8.490;2022-12-26T01:08:55;12.90;99.90
14031;DHT22;7090;49.436;8.490;2022-12-26T01:11:20;12.80;99.90
14031;DHT22;7090;49.436;8.490;2022-12-26T01:14:16;12.80;99.90
14031;DHT22;7090;49.436;8.490;2022-12-26T01:16:43;12.80;99.90
14031;DHT22;7090;49.436;8.490;2022-12-26T01:19:10;12.80;99.90
14031;DHT22;7090;49.436;8.490;2022-12-26T01:21:37;12.80;99.90
14031;DHT22;7090;49.436;8.490;2022-12-26T01:24:03;12.70;99.90
14031;DHT22;7090;49.436;8.490;2022-12-26T01:26:29;12.60;99.90
14031;DHT22;7090;49.436;8.490;2022-12-26T01:28:54;12.60;99.90
14031;DHT22;7090;49.436;8.490;2022-12-26T01:31:21;12.60;99.90
14031;DHT22;7090;49.436;8.490;2022-12-26T01:33:47;12.60;99.90
14031;DHT22;7090;49.436;8.490;2022-12-26T01:36:14;12.60;99.90
14031;DHT22;7090;49.436;8.490;2022-12-26T01:38:40;12.60;99.90
14031;DHT22;7090;49.436;8.490;2022-12-26T01:41:05;12.60;99.90
14031;DHT22;7090;49.436;8.490;2022-12-26T01:46:14;12.50;99.90
14031;DHT22;7090;49.436;8.490;2022-12-26T01:48:39;12.50;99.90
14031;DHT22;7090;49.436;8.490;2022-12-26T01:51:05;12.50;1.00
14031;DHT22;7090;49.436;8.490;2022-12-26T01:53:38;12.40;1.00
14031;DHT22;7090;49.436;8.490;2022-12-26T01:56:08;12.40;1.00
14031;DHT22;7090;49.436;8.490;2022-12-26T01:58:40;12.40;1.00
14031;DHT22;7090;49.436;8.490;2022-12-26T02:01:08;12.30;1.00
14031;DHT22;7090;49.436;8.490;2022-12-26T02:03:37;12.30;1.00
14031;DHT22;7090;49.436;8.490;2022-12-26T02:06:22;12.30;1.00
14031;DHT22;7090;49.436;8.490;2022-12-26T02:08:48;12.20;1.00
14031;DHT22;7090;49.436;8.490;2022-12-26T02:11:31;12.20;1.00
14031;DHT22;7090;49.436;8.490;2022-12-26T02:13:58;12.20;1.00
14031;DHT22;7090;49.436;8.490;2022-12-26T02:16:24;12.20;1.00
14031;DHT22;7090;49.436;8.490;2022-12-26T02:18:50;12.20;1.00
14031;DHT22;7090;49.436;8.490;2022-12-26T02:24:15;12.10;1.00
14031;DHT22;7090;49.436;8.490;2022-12-26T02:35:25;12.20;1.00
14031;DHT22;7090;49.436;8.490;2022-12-26T02:38:06;12.10;1.00
14031;DHT22;7090;49.436;8.490;2022-12-26T02:43:21;12.00;1.00
14031;DHT22;7090;49.436;8.490;2022-12-26T02:46:32;12.00;1.00
14031;DHT22;7090;49.436;8.490;2022-12-26T02:52:54;12.10;1.00
14031;DHT22;7090;49.436;8.490;2022-12-26T02:55:43;12.30;1.00
14031;DHT22;7090;49.436;8.490;2022-12-26T02:58:47;12.00;1.00
14031;DHT22;7090;49.436;8.490;2022-12-26T03:01:39;12.10;1.00
14031;DHT22;7090;49.436;8.490;2022-12-26T03:04:26;12.10;1.00
14031;DHT22;7090;49.436;8.490;2022-12-26T03:07:20;12.10;1.00
14031;DHT22;7090;49.436;8.490;2022-12-26T03:10:18;12.10;1.00
14031;DHT22;7090;49.436;8.490;2022-12-26T03:13:08;12.20;1.00
14031;DHT22;7090;49.436;8.490;2022-12-26T03:15:44;12.10;1.00
14031;DHT22;7090;49.436;8.490;2022-12-26T03:18:31;12.20;1.00
14031;DHT22;7090;49.436;8.490;2022-12-26T03:20:59;12.30;1.00
14031;DHT22;7090;49.436;8.490;2022-12-26T03:23:25;12.30;1.00
14031;DHT22;7090;49.436;8.490;2022-12-26T03:25:56;12.30;1.00
14031;DHT22;7090;49.436;8.490;2022-12-26T03:28:41;12.40;1.00
14031;DHT22;7090;49.436;8.490;2022-12-26T03:31:10;12.40;1.00
14031;DHT22;7090;49.436;8.490;2022-12-26T03:33:38;12.40;1.00
14031;DHT22;7090;49.436;8.490;2022-12-26T03:36:45;12.40;1.00
14031;DHT22;7090;49.436;8.490;2022-12-26T03:39:51;12.10;1.00
14031;DHT22;7090;49.436;8.490;2022-12-26T03:45:48;11.90;1.00
14031;DHT22;7090;49.436;8.490;2022-12-26T03:48:43;11.80;1.00
14031;DHT22;7090;49.436;8.490;2022-12-26T03:54:28;11.80;1.00
14031;DHT22;7090;49.436;8.490;2022-12-26T03:57:17;11.90;1.00
14031;DHT22;7090;49.436;8.490;2022-12-26T04:00:10;12.00;1.00
14031;DHT22;7090;49.436;8.490;2022-12-26T04:03:02;12.10;1.00
14031;DHT22;7090;49.436;8.490;2022-12-26T04:05:49;12.10;1.00
14031;DHT22;7090;49.436;8.490;2022-12-26T04:08:53;12.10;1.00
14031;DHT22;7090;49.436;8.490;2022-12-26T04:11:41;12.10;1.00
14031;DHT22;7090;49.436;8.490;2022-12-26T04:14:49;12.10;1.00
14031;DHT22;7090;49.436;8.490;2022-12-26T04:20:36;12.20;1.00
14031;DHT22;7090;49.436;8.490;2022-12-26T04:23:07;12.20;1.00
14031;DHT22;7090;49.436;8.490;2022-12-26T04:26:01;12.20;1.00
14031;DHT22;7090;49.436;8.490;2022-12-26T04:28:47;12.30;1.00
14031;DHT22;7090;49.436;8.490;2022-12-26T04:32:10;12.30;1.00
14031;DHT22;7090;49.436;8.490;2022-12-26T04:35:04;12.30;1.00
14031;DHT22;7090;49.436;8.490;2022-12-26T04:37:51;12.40;1.00
14031;DHT22;7090;49.436;8.490;2022-12-26T04:40:42;12.40;1.00
14031;DHT22;7090;49.436;8.490;2022-12-26T04:43:28;12.30;1.00
14031;DHT22;7090;49.436;8.490;2022-12-26T04:46:14;12.40;1.00
14031;DHT22;7090;49.436;8.490;2022-12-26T04:48:44;12.40;1.00
14031;DHT22;7090;49.436;8.490;2022-12-26T04:51:28;12.40;1.00
14031;DHT22;7090;49.436;8.490;2022-12-26T04:53:54;12.40;1.00
14031;DHT22;7090;49.436;8.490;2022-12-26T04:56:19;12.40;1.00
14031;DHT22;7090;49.436;8.490;2022-12-26T04:58:45;12.40;1.00
14031;DHT22;7090;49.436;8.490;2022-12-26T05:01:11;12.40;1.00
14031;DHT22;7090;49.436;8.490;2022-12-26T05:03:55;12.40;1.00
14031;DHT22;7090;49.436;8.490;2022-12-26T05:06:39;12.40;1.00
14031;DHT22;7090;49.436;8.490;2022-12-26T05:09:23;12.40;1.00
14031;DHT22;7090;49.436;8.490;2022-12-26T05:12:06;12.50;1.00
14031;DHT22;7090;49.436;8.490;2022-12-26T05:14:32;12.40;1.00
14031;DHT22;7090;49.436;8.490;2022-12-26T05:17:04;12.50;1.00
14031;DHT22;7090;49.436;8.490;2022-12-26T05:19:49;12.60;1.00
14031;DHT22;7090;49.436;8.490;2022-12-26T05:22:37;12.50;1.00
14031;DHT22;7090;49.436;8.490;2022-12-26T05:25:27;12.60;1.00
14031;DHT22;7090;49.436;8.490;2022-12-26T05:28:13;12.70;1.00
14031;DHT22;7090;49.436;8.490;2022-12-26T05:30:57;12.70;1.00
14031;DHT22;7090;49.436;8.490;2022-12-26T05:33:23;12.80;1.00
14031;DHT22;7090;49.436;8.490;2022-12-26T05:36:08;12.80;1.00
14031;DHT22;7090;49.436;8.490;2022-12-26T05:38:35;12.80;1.00
14031;DHT22;7090;49.436;8.490;2022-12-26T05:41:01;12.80;1.00
14031;DHT22;7090;49.436;8.490;2022-12-26T05:43:27;12.80;1.00
14031;DHT22;7090;49.436;8.490;2022-12-26T05:45:52;12.80;1.00
14031;DHT22;7090;49.436;8.490;2022-12-26T05:48:18;12.80;1.00
14031;DHT22;7090;49.436;8.490;2022-12-26T05:50:43;12.80;1.00
14031;DHT22;7090;49.436;8.490;2022-12-26T05:53:09;12.70;1.00
14031;DHT22;7090;49.436;8.490;2022-12-26T05:55:35;12.70;1.00
14031;DHT22;7090;49.436;8.490;2022-12-26T05:58:00;12.80;1.00
14031;DHT22;7090;49.436;8.490;2022-12-26T06:00:26;12.80;1.00
14031;DHT22;7090;49.436;8.490;2022-12-26T06:02:52;12.80;1.00
14031;DHT22;7090;49.436;8.490;2022-12-26T06:05:18;12.80;1.00
14031;DHT22;7090;49.436;8.490;2022-12-26T06:07:43;12.70;1.00
14031;DHT22;7090;49.436;8.490;2022-12-26T06:10:09;12.70;1.00
14031;DHT22;7090;49.436;8.490;2022-12-26T06:12:35;12.70;1.00
14031;DHT22;7090;49.436;8.490;2022-12-26T06:15:02;12.70;1.00
14031;DHT22;7090;49.436;8.490;2022-12-26T06:17:28;12.70;1.00
14031;DHT22;7090;49.436;8.490;2022-12-26T06:19:53;12.60;1.00
14031;DHT22;7090;49.436;8.490;2022-12-26T06:22:19;12.60;1.00
14031;DHT22;7090;49.436;8.490;2022-12-26T06:24:44;12.60;1.00
14031;DHT22;7090;49.436;8.490;2022-12-26T06:27:10;12.60;1.00
14031;DHT22;7090;49.436;8.490;2022-12-26T06:29:35;12.60;1.00
14031;DHT22;7090;49.436;8.490;2022-12-26T06:32:01;12.60;1.00
14031;DHT22;7090;49.436;8.490;2022-12-26T06:34:27;12.60;1.00
14031;DHT22;7090;49.436;8.490;2022-12-26T06:36:53;12.60;1.00
14031;DHT22;7090;49.436;8.490;2022-12-26T06:39:20;12.50;7.30
14031;DHT22;7090;49.436;8.490;2022-12-26T06:41:46;12.50;34.40
14031;DHT22;7090;49.436;8.490;2022-12-26T06:44:12;12.50;61.40
14031;DHT22;7090;49.436;8.490;2022-12-26T06:46:37;12.50;90.40
14031;DHT22;7090;49.436;8.490;2022-12-26T06:49:03;12.50;99.00
14031;DHT22;7090;49.436;8.490;2022-12-26T06:51:31;12.50;99.90
14031;DHT22;7090;49.436;8.490;2022-12-26T06:53:58;12.50;99.90
14031;DHT22;7090;49.436;8.490;2022-12-26T06:56:26;12.50;99.90
14031;DHT22;7090;49.436;8.490;2022-12-26T06:58:53;12.40;99.90
14031;DHT22;7090;49.436;8.490;2022-12-26T07:01:20;12.40;99.90
14031;DHT22;7090;49.436;8.490;2022-12-26T07:03:46;12.40;99.90
14031;DHT22;7090;49.436;8.490;2022-12-26T07:06:20;12.30;99.90
14031;DHT22;7090;49.436;8.490;2022-12-26T07:08:47;12.20;99.90
14031;DHT22;7090;49.436;8.490;2022-12-26T07:11:17;12.20;99.90
14031;DHT22;7090;49.436;8.490;2022-12-26T07:13:43;12.10;99.90
14031;DHT22;7090;49.436;8.490;2022-12-26T07:16:09;12.10;99.90
14031;DHT22;7090;49.436;8.490;2022-12-26T07:18:35;12.00;99.90
14031;DHT22;7090;49.436;8.490;2022-12-26T07:21:05;12.00;99.90
14031;DHT22;7090;49.436;8.490;2022-12-26T07:23:31;12.00;99.90
14031;DHT22;7090;49.436;8.490;2022-12-26T07:25:57;11.90;99.90
14031;DHT22;7090;49.436;8.490;2022-12-26T07:28:22;12.00;99.90
14031;DHT22;7090;49.436;8.490;2022-12-26T07:30:49;12.00;99.90
14031;DHT22;7090;49.436;8.490;2022-12-26T07:33:15;12.00;99.90
14031;DHT22;7090;49.436;8.490;2022-12-26T07:35:41;12.00;99.90
14031;DHT22;7090;49.436;8.490;2022-12-26T07:38:06;11.90;99.90
14031;DHT22;7090;49.436;8.490;2022-12-26T07:40:32;12.00;99.90
14031;DHT22;7090;49.436;8.490;2022-12-26T07:42:58;12.00;99.90
14031;DHT22;7090;49.436;8.490;2022-12-26T07:45:23;11.90;99.90
14031;DHT22;7090;49.436;8.490;2022-12-26T07:47:52;12.00;99.90
14031;DHT22;7090;49.436;8.490;2022-12-26T07:50:18;12.00;99.90
14031;DHT22;7090;49.436;8.490;2022-12-26T07:52:44;12.00;99.90
14031;DHT22;7090;49.436;8.490;2022-12-26T07:55:09;12.00;99.90
14031;DHT22;7090;49.436;8.490;2022-12-26T07:57:35;11.90;99.90
14031;DHT22;7090;49.436;8.490;2022-12-26T08:00:00;11.90;99.90
14031;DHT22;7090;49.436;8.490;2022-12-26T08:02:26;11.90;99.90
14031;DHT22;7090;49.436;8.490;2022-12-26T08:04:51;11.80;99.90
14031;DHT22;7090;49.436;8.490;2022-12-26T08:07:17;11.90;99.90
14031;DHT22;7090;49.436;8.490;2022-12-26T08:09:43;11.90;99.90
14031;DHT22;7090;49.436;8.490;2022-12-26T08:12:10;11.80;99.90
14031;DHT22;7090;49.436;8.490;2022-12-26T08:14:36;11.80;99.90
14031;DHT22;7090;49.436;8.490;2022-12-26T08:17:02;11.80;99.90
14031;DHT22;7090;49.436;8.490;2022-12-26T08:19:27;11.80;99.90
14031;DHT22;7090;49.436;8.490;2022-12-26T08:21:53;11.90;99.90
14031;DHT22;7090;49.436;8.490;2022-12-26T08:24:19;11.80;99.90
14031;DHT22;7090;49.436;8.490;2022-12-26T08:26:44;11.80;99.90
14031;DHT22;7090;49.436;8.490;2022-12-26T08:29:10;11.80;99.90
14031;DHT22;7090;49.436;8.490;2022-12-26T08:31:36;11.70;99.90
14031;DHT22;7090;49.436;8.490;2022-12-26T08:34:01;11.70;99.90
14031;DHT22;7090;49.436;8.490;2022-12-26T08:36:27;11.50;99.90
14031;DHT22;7090;49.436;8.490;2022-12-26T08:38:53;11.60;99.90
14031;DHT22;7090;49.436;8.490;2022-12-26T08:41:19;11.50;99.90
14031;DHT22;7090;49.436;8.490;2022-12-26T08:43:49;11.50;99.90
14031;DHT22;7090;49.436;8.490;2022-12-26T08:46:15;11.50;99.90
14031;DHT22;7090;49.436;8.490;2022-12-26T08:48:40;11.50;99.90
14031;DHT22;7090;49.436;8.490;2022-12-26T08:51:09;11.50;99.90
14031;DHT22;7090;49.436;8.490;2022-12-26T08:53:36;11.50;99.90
14031;DHT22;7090;49.436;8.490;2022-12-26T08:56:04;11.50;99.90
14031;DHT22;7090;49.436;8.490;2022-12-26T08:58:31;11.50;99.90
14031;DHT22;7090;49.436;8.490;2022-12-26T09:01:09;11.50;99.90
14031;DHT22;7090;49.436;8.490;2022-12-26T09:03:36;11.50;99.90
14031;DHT22;7090;49.436;8.490;2022-12-26T09:06:02;11.50;99.90
14031;DHT22;7090;49.436;8.490;2022-12-26T09:08:28;11.50;99.90
14031;DHT22;7090;49.436;8.490;2022-12-26T09:10:55;11.50;99.90
14031;DHT22;7090;49.436;8.490;2022-12-26T09:13:22;11.50;99.90
14031;DHT22;7090;49.436;8.490;2022-12-26T09:15:47;11.50;99.90
14031;DHT22;7090;49.436;8.490;2022-12-26T09:18:13;11.50;99.90
14031;DHT22;7090;49.436;8.490;2022-12-26T09:20:38;11.50;99.90
14031;DHT22;7090;49.436;8.490;2022-12-26T09:23:04;11.50;99.90
14031;DHT22;7090;49.436;8.490;2022-12-26T09:25:31;11.50;99.90
14031;DHT22;7090;49.436;8.490;2022-12-26T09:27:57;11.50;99.90
14031;DHT22;7090;49.436;8.490;2022-12-26T09:30:22;11.60;99.90
14031;DHT22;7090;49.436;8.490;2022-12-26T09:32:48;11.50;99.90
14031;DHT22;7090;49.436;8.490;2022-12-26T09:35:14;11.60;99.90
14031;DHT22;7090;49.436;8.490;2022-12-26T09:37:39;11.60;99.90
14031;DHT22;7090;49.436;8.490;2022-12-26T09:40:05;11.60;99.90
14031;DHT22;7090;49.436;8.490;2022-12-26T09:45:54;11.60;99.90
14031;DHT22;7090;49.436;8.490;2022-12-26T09:48:28;11.60;99.90
14031;DHT22;7090;49.436;8.490;2022-12-26T09:50:55;11.70;99.90
14031;DHT22;7090;49.436;8.490;2022-12-26T09:53:34;11.70;99.90
14031;DHT22;7090;49.436;8.490;2022-12-26T09:56:07;11.70;99.90
14031;DHT22;7090;49.436;8.490;2022-12-26T09:58:44;11.70;99.90
14031;DHT22;7090;49.436;8.490;2022-12-26T10:01:19;11.70;99.90
14031;DHT22;7090;49.436;8.490;2022-12-26T10:03:49;11.70;99.90
14031;DHT22;7090;49.436;8.490;2022-12-26T10:17:11;11.80;99.90
14031;DHT22;7090;49.436;8.490;2022-12-26T10:23:04;11.90;99.90
14031;DHT22;7090;49.436;8.490;2022-12-26T10:25:46;11.90;99.90
14031;DHT22;7090;49.436;8.490;2022-12-26T10:30:53;11.80;99.90
14031;DHT22;7090;49.436;8.490;2022-12-26T10:33:48;11.90;99.90
14031;DHT22;7090;49.436;8.490;2022-12-26T10:36:25;11.80;99.90
14031;DHT22;7090;49.436;8.490;2022-12-26T10:38:52;11.90;99.90
14031;DHT22;7090;49.436;8.490;2022-12-26T10:41:25;11.90;99.90
14031;DHT22;7090;49.436;8.490;2022-12-26T10:43:51;11.90;99.90
14031;DHT22;7090;49.436;8.490;2022-12-26T10:46:35;12.00;99.90
14031;DHT22;7090;49.436;8.490;2022-12-26T10:49:06;12.00;99.90
14031;DHT22;7090;49.436;8.490;2022-12-26T10:51:32;12.00;99.90
14031;DHT22;7090;49.436;8.490;2022-12-26T10:53:58;12.10;99.90
14031;DHT22;7090;49.436;8.490;2022-12-26T10:56:24;12.10;99.90
14031;DHT22;7090;49.436;8.490;2022-12-26T10:59:03;12.10;99.90
14031;DHT22;7090;49.436;8.490;2022-12-26T11:04:03;12.00;99.90
14031;DHT22;7090;49.436;8.490;2022-12-26T11:06:40;12.00;99.90
14031;DHT22;7090;49.436;8.490;2022-12-26T11:09:06;12.00;99.90
14031;DHT22;7090;49.436;8.490;2022-12-26T11:11:47;12.00;99.90
14031;DHT22;7090;49.436;8.490;2022-12-26T11:14:38;11.90;99.90
14031;DHT22;7090;49.436;8.490;2022-12-26T11:17:11;12.00;99.90
14031;DHT22;7090;49.436;8.490;2022-12-26T11:19:40;11.90;99.90
14031;DHT22;7090;49.436;8.490;2022-12-26T11:22:25;12.00;99.90
14031;DHT22;7090;49.436;8.490;2022-12-26T11:25:18;12.00;99.90
14031;DHT22;7090;49.436;8.490;2022-12-26T11:27:55;11.90;99.90
14031;DHT22;7090;49.436;8.490;2022-12-26T11:33:39;11.90;99.90
14031;DHT22;7090;49.436;8.490;2022-12-26T11:35:37;11.90;99.90
14031;DHT22;7090;49.436;8.490;2022-12-26T11:38:14;12.00;99.90
14031;DHT22;7090;49.436;8.490;2022-12-26T11:49:25;12.20;99.90
14031;DHT22;7090;49.436;8.490;2022-12-26T11:51:52;12.20;99.90
14031;DHT22;7090;49.436;8.490;2022-12-26T11:54:26;12.30;99.90
14031;DHT22;7090;49.436;8.490;2022-12-26T11:57:16;12.40;99.90
14031;DHT22;7090;49.436;8.490;2022-12-26T11:59:43;12.50;99.90
14031;DHT22;7090;49.436;8.490;2022-12-26T12:02:30;12.60;99.90
14031;DHT22;7090;49.436;8.490;2022-12-26T12:05:01;12.60;99.90
14031;DHT22;7090;49.436;8.490;2022-12-26T12:07:38;12.80;99.90
14031;DHT22;7090;49.436;8.490;2022-12-26T12:10:34;12.70;99.90
14031;DHT22;7090;49.436;8.490;2022-12-26T12:18:47;12.90;99.90
14031;DHT22;7090;49.436;8.490;2022-12-26T12:24:22;13.20;99.90
14031;DHT22;7090;49.436;8.490;2022-12-26T12:32:34;13.30;99.90
14031;DHT22;7090;49.436;8.490;2022-12-26T12:35:28;13.30;99.90
14031;DHT22;7090;49.436;8.490;2022-12-26T12:41:12;13.30;99.90
14031;DHT22;7090;49.436;8.490;2022-12-26T12:44:02;13.30;99.90
14031;DHT22;7090;49.436;8.490;2022-12-26T12:46:38;13.20;99.90
14031;DHT22;7090;49.436;8.490;2022-12-26T13:02:59;12.90;99.90
14031;DHT22;7090;49.436;8.490;2022-12-26T13:08:23;12.80;99.90
14031;DHT22;7090;49.436;8.490;2022-12-26T13:10:57;12.80;99.90
14031;DHT22;7090;49.436;8.490;2022-12-26T13:13:32;12.90;99.90
14031;DHT22;7090;49.436;8.490;2022-12-26T13:16:14;12.90;99.90
14031;DHT22;7090;49.436;8.490;2022-12-26T13:18:48;12.90;99.90
14031;DHT22;7090;49.436;8.490;2022-12-26T13:21:15;13.00;99.90
14031;DHT22;7090;49.436;8.490;2022-12-26T13:23:51;13.00;99.90
14031;DHT22;7090;49.436;8.490;2022-12-26T13:26:41;13.00;99.90
14031;DHT22;7090;49.436;8.490;2022-12-26T13:31:57;13.00;99.90
14031;DHT22;7090;49.436;8.490;2022-12-26T13:34:23;13.00;99.90
14031;DHT22;7090;49.436;8.490;2022-12-26T13:36:57;13.00;99.90
14031;DHT22;7090;49.436;8.490;2022-12-26T13:44:51;12.80;99.90
14031;DHT22;7090;49.436;8.490;2022-12-26T13:47:37;12.80;99.90
14031;DHT22;7090;49.436;8.490;2022-12-26T13:53:30;12.70;99.90
14031;DHT22;7090;49.436;8.490;2022-12-26T13:55:58;12.70;99.90
14031;DHT22;7090;49.436;8.490;2022-12-26T14:10:10;12.60;99.90
14031;DHT22;7090;49.436;8.490;2022-12-26T14:16:02;12.50;99.90
14031;DHT22;7090;49.436;8.490;2022-12-26T14:18:38;12.50;99.90
14031;DHT22;7090;49.436;8.490;2022-12-26T14:32:30;12.40;99.90
14031;DHT22;7090;49.436;8.490;2022-12-26T14:43:38;12.30;99.90
14031;DHT22;7090;49.436;8.490;2022-12-26T14:49:45;12.20;99.90
14031;DHT22;7090;49.436;8.490;2022-12-26T14:51:45;12.20;99.90
14031;DHT22;7090;49.436;8.490;2022-12-26T14:56:47;12.10;99.90
14031;DHT22;7090;49.436;8.490;2022-12-26T14:59:31;12.10;99.90
14031;DHT22;7090;49.436;8.490;2022-12-26T15:05:02;12.00;99.90
14031;DHT22;7090;49.436;8.490;2022-12-26T15:25:17;12.00;99.90
14031;DHT22;7090;49.436;8.490;2022-12-26T15:45:07;11.80;99.90
14031;DHT22;7090;49.436;8.490;2022-12-26T15:51:04;11.80;99.90
14031;DHT22;7090;49.436;8.490;2022-12-26T15:54:10;11.80;99.90
14031;DHT22;7090;49.436;8.490;2022-12-26T16:05:20;11.80;99.90
14031;DHT22;7090;49.436;8.490;2022-12-26T16:07:46;11.80;99.90
14031;DHT22;7090;49.436;8.490;2022-12-26T16:13:05;11.70;99.90
14031;DHT22;7090;49.436;8.490;2022-12-26T16:15:57;11.80;99.90
14031;DHT22;7090;49.436;8.490;2022-12-26T16:18:30;11.80;99.90
14031;DHT22;7090;49.436;8.490;2022-12-26T16:20:58;11.80;99.90
14031;DHT22;7090;49.436;8.490;2022-12-26T16:23:44;11.70;99.90
14031;DHT22;7090;49.436;8.490;2022-12-26T16:26:21;11.70;99.90
14031;DHT22;7090;49.436;8.490;2022-12-26T16:28:48;11.60;99.90
14031;DHT22;7090;49.436;8.490;2022-12-26T16:31:24;11.50;99.90
14031;DHT22;7090;49.436;8.490;2022-12-26T16:33:51;11.30;99.90
14031;DHT22;7090;49.436;8.490;2022-12-26T16:36:22;11.10;99.90
14031;DHT22;7090;49.436;8.490;2022-12-26T16:38:49;11.00;99.90
14031;DHT22;7090;49.436;8.490;2022-12-26T16:41:20;10.90;99.90
14031;DHT22;7090;49.436;8.490;2022-12-26T16:43:46;10.80;99.90
14031;DHT22;7090;49.436;8.490;2022-12-26T16:46:13;10.70;99.90
14031;DHT22;7090;49.436;8.490;2022-12-26T16:48:40;10.60;99.90
14031;DHT22;7090;49.436;8.490;2022-12-26T16:57:01;10.30;99.90
14031;DHT22;7090;49.436;8.490;2022-12-26T16:59:42;10.20;99.90
14031;DHT22;7090;49.436;8.490;2022-12-26T17:02:15;10.10;99.90
14031;DHT22;7090;49.436;8.490;2022-12-26T17:05:33;10.00;99.90
14031;DHT22;7090;49.436;8.490;2022-12-26T17:07:37;10.00;99.90
14031;DHT22;7090;49.436;8.490;2022-12-26T17:10:03;9.90;99.90
14031;DHT22;7090;49.436;8.490;2022-12-26T17:12:37;9.90;99.90
14031;DHT22;7090;49.436;8.490;2022-12-26T17:15:04;9.80;99.90
14031;DHT22;7090;49.436;8.490;2022-12-26T17:17:32;9.80;99.90
14031;DHT22;7090;49.436;8.490;2022-12-26T17:22:47;9.80;99.90
14031;DHT22;7090;49.436;8.490;2022-12-26T17:25:29;9.80;99.90
14031;DHT22;7090;49.436;8.490;2022-12-26T17:30:33;9.80;99.90
14031;DHT22;7090;49.436;8.490;2022-12-26T17:36:04;9.70;99.90
14031;DHT22;7090;49.436;8.490;2022-12-26T17:38:32;9.70;99.90
14031;DHT22;7090;49.436;8.490;2022-12-26T17:41:02;9.80;99.90
14031;DHT22;7090;49.436;8.490;2022-12-26T17:43:30;9.70;99.90
14031;DHT22;7090;49.436;8.490;2022-12-26T17:45:56;9.80;99.90
14031;DHT22;7090;49.436;8.490;2022-12-26T17:48:22;9.80;99.90
14031;DHT22;7090;49.436;8.490;2022-12-26T17:50:53;9.80;99.90
14031;DHT22;7090;49.436;8.490;2022-12-26T17:53:28;9.70;99.90
14031;DHT22;7090;49.436;8.490;2022-12-26T17:56:15;9.70;99.90
14031;DHT22;7090;49.436;8.490;2022-12-26T17:58:42;9.60;99.90
14031;DHT22;7090;49.436;8.490;2022-12-26T18:01:08;9.60;99.90
14031;DHT22;7090;49.436;8.490;2022-12-26T18:03:34;9.60;99.90
14031;DHT22;7090;49.436;8.490;2022-12-26T18:05:59;9.60;99.90
14031;DHT22;7090;49.436;8.490;2022-12-26T18:08:38;9.60;99.90
14031;DHT22;7090;49.436;8.490;2022-12-26T18:11:07;9.50;99.90
14031;DHT22;7090;49.436;8.490;2022-12-26T18:13:33;9.50;99.90
14031;DHT22;7090;49.436;8.490;2022-12-26T18:15:59;9.50;99.90
14031;DHT22;7090;49.436;8.490;2022-12-26T18:18:37;9.50;99.90
14031;DHT22;7090;49.436;8.490;2022-12-26T18:21:05;9.50;99.90
14031;DHT22;7090;49.436;8.490;2022-12-26T18:23:31;9.50;99.90
14031;DHT22;7090;49.436;8.490;2022-12-26T18:26:00;9.60;99.90
14031;DHT22;7090;49.436;8.490;2022-12-26T18:28:26;9.70;99.90
14031;DHT22;7090;49.436;8.490;2022-12-26T18:30:51;9.70;99.90
14031;DHT22;7090;49.436;8.490;2022-12-26T18:33:17;9.70;99.90
14031;DHT22;7090;49.436;8.490;2022-12-26T18:35:43;9.70;99.90
14031;DHT22;7090;49.436;8.490;2022-12-26T18:38:16;9.60;99.90
14031;DHT22;7090;49.436;8.490;2022-12-26T18:40:44;9.70;99.90
14031;DHT22;7090;49.436;8.490;2022-12-26T18:43:12;9.80;99.90
14031;DHT22;7090;49.436;8.490;2022-12-26T18:45:39;9.70;99.90
14031;DHT22;7090;49.436;8.490;2022-12-26T18:48:06;9.70;99.90
14031;DHT22;7090;49.436;8.490;2022-12-26T18:50:33;9.60;99.90
14031;DHT22;7090;49.436;8.490;2022-12-26T18:52:59;9.60;99.90
14031;DHT22;7090;49.436;8.490;2022-12-26T18:55:25;9.50;99.90
14031;DHT22;7090;49.436;8.490;2022-12-26T18:57:53;9.50;99.90
14031;DHT22;7090;49.436;8.490;2022-12-26T19:00:20;9.50;99.90
14031;DHT22;7090;49.436;8.490;2022-12-26T19:02:46;9.50;99.90
14031;DHT22;7090;49.436;8.490;2022-12-26T19:05:25;9.40;99.90
14031;DHT22;7090;49.436;8.490;2022-12-26T19:07:52;9.40;99.90
14031;DHT22;7090;49.436;8.490;2022-12-26T19:10:20;9.30;99.90
14031;DHT22;7090;49.436;8.490;2022-12-26T19:12:46;9.40;99.90
14031;DHT22;7090;49.436;8.490;2022-12-26T19:15:13;9.30;99.90
14031;DHT22;7090;49.436;8.490;2022-12-26T19:17:39;9.20;99.90
14031;DHT22;7090;49.436;8.490;2022-12-26T19:20:06;9.10;99.90
14031;DHT22;7090;49.436;8.490;2022-12-26T19:22:32;9.10;99.90
14031;DHT22;7090;49.436;8.490;2022-12-26T19:24:58;9.10;99.90
14031;DHT22;7090;49.436;8.490;2022-12-26T19:27:23;9.20;99.90
14031;DHT22;7090;49.436;8.490;2022-12-26T19:29:49;9.10;99.90
14031;DHT22;7090;49.436;8.490;2022-12-26T19:32:14;9.00;99.90
14031;DHT22;7090;49.436;8.490;2022-12-26T19:34:40;9.00;99.90
14031;DHT22;7090;49.436;8.490;2022-12-26T19:37:06;9.00;99.90
14031;DHT22;7090;49.436;8.490;2022-12-26T19:39:33;9.00;99.90
14031;DHT22;7090;49.436;8.490;2022-12-26T19:41:58;9.00;99.90
14031;DHT22;7090;49.436;8.490;2022-12-26T19:44:24;9.00;99.90
14031;DHT22;7090;49.436;8.490;2022-12-26T19:46:50;8.90;99.90
14031;DHT22;7090;49.436;8.490;2022-12-26T19:49:15;8.90;99.90
14031;DHT22;7090;49.436;8.490;2022-12-26T19:51:41;8.90;99.90
14031;DHT22;7090;49.436;8.490;2022-12-26T19:54:06;8.80;99.90
14031;DHT22;7090;49.436;8.490;2022-12-26T19:56:32;8.70;99.90
14031;DHT22;7090;49.436;8.490;2022-12-26T19:58:58;8.80;99.90